createdAt,value
2023-07-04T00:01:07.708Z,7.18
2023-07-04T00:03:36.152Z,5.78
2023-07-04T00:06:03.567Z,7.18
2023-07-04T00:08:35.508Z,6.32
2023-07-04T00:11:03.963Z,6.50
2023-07-04T00:13:32.923Z,6.55
2023-07-04T00:16:00.804Z,6.75
2023-07-04T00:18:29.635Z,6.28
2023-07-04T00:21:07.768Z,6.50
2023-07-04T00:23:36.945Z,6.72
2023-07-04T00:26:08.768Z,6.18
2023-07-04T00:28:39.897Z,6.80
2023-07-04T00:31:08.301Z,6.30
2023-07-04T00:33:35.375Z,6.25
2023-07-04T00:36:05.632Z,6.70
2023-07-04T00:38:38.094Z,6.63
2023-07-04T00:41:21.736Z,5.75
2023-07-04T00:46:37.697Z,5.75
2023-07-04T00:49:20.062Z,6.18
2023-07-04T00:51:56.704Z,6.45
2023-07-04T00:54:30.806Z,6.47
2023-07-04T00:57:07.594Z,6.28
2023-07-04T00:59:45.242Z,7.70
2023-07-04T01:02:18.889Z,7.03
2023-07-04T01:04:48.333Z,6.35
2023-07-04T01:07:36.996Z,6.72
2023-07-04T01:10:15.446Z,6.75
2023-07-04T01:12:42.660Z,6.78
2023-07-04T01:15:10.345Z,6.70
2023-07-04T01:17:37.388Z,6.82
2023-07-04T01:20:09.770Z,6.63
2023-07-04T01:22:55.186Z,6.28
2023-07-04T01:26:08.497Z,6.90
2023-07-04T01:28:35.533Z,6.13
2023-07-04T01:31:02.501Z,5.82
2023-07-04T01:33:29.526Z,5.80
2023-07-04T01:35:57.706Z,6.40
2023-07-04T01:38:24.643Z,6.22
2023-07-04T01:40:51.832Z,6.70
2023-07-04T01:43:19.019Z,6.63
2023-07-04T01:45:47.143Z,6.93
2023-07-04T01:48:15.244Z,6.05
2023-07-04T01:50:42.362Z,6.65
2023-07-04T01:53:13.594Z,6.63
2023-07-04T01:55:40.802Z,6.68
2023-07-04T01:58:07.890Z,5.90
2023-07-04T02:00:35.037Z,5.88
2023-07-04T02:03:02.516Z,5.63
2023-07-04T02:05:31.293Z,7.03
2023-07-04T02:07:58.243Z,6.32
2023-07-04T02:10:25.186Z,6.22
2023-07-04T02:12:52.159Z,6.00
2023-07-04T02:15:19.123Z,6.60
2023-07-04T02:17:46.173Z,6.88
2023-07-04T02:20:14.103Z,5.90
2023-07-04T02:22:43.242Z,5.97
2023-07-04T02:25:11.083Z,5.78
2023-07-04T02:27:38.407Z,5.93
2023-07-04T02:30:06.171Z,6.13
2023-07-04T02:32:33.130Z,6.18
2023-07-04T02:35:00.308Z,5.72
2023-07-04T02:37:27.258Z,5.80
2023-07-04T02:39:54.749Z,6.45
2023-07-04T02:42:21.748Z,6.30
2023-07-04T02:44:48.673Z,6.45
2023-07-04T02:47:15.677Z,5.90
2023-07-04T02:49:42.789Z,6.35
2023-07-04T02:52:09.804Z,5.88
2023-07-04T02:54:36.771Z,6.00
2023-07-04T02:57:04.050Z,6.53
2023-07-04T02:59:31.684Z,6.53
2023-07-04T03:01:58.601Z,6.32
2023-07-04T03:04:25.586Z,6.18
2023-07-04T03:06:52.538Z,5.70
2023-07-04T03:09:19.459Z,6.03
2023-07-04T03:11:46.486Z,6.32
2023-07-04T03:14:13.397Z,6.90
2023-07-04T03:16:40.639Z,5.70
2023-07-04T03:19:08.004Z,5.68
2023-07-04T03:21:34.969Z,6.20
2023-07-04T03:24:01.896Z,5.90
2023-07-04T03:26:29.084Z,5.97
2023-07-04T03:28:55.980Z,6.38
2023-07-04T03:31:22.996Z,5.78
2023-07-04T03:33:51.472Z,6.10
2023-07-04T03:36:18.632Z,6.10
2023-07-04T03:38:45.653Z,6.68
2023-07-04T03:41:12.770Z,6.10
2023-07-04T03:43:40.686Z,6.75
2023-07-04T03:46:07.692Z,6.45
2023-07-04T03:48:34.860Z,6.55
2023-07-04T03:51:02.861Z,6.72
2023-07-04T03:53:29.786Z,6.57
2023-07-04T03:55:56.714Z,6.22
2023-07-04T03:58:24.618Z,7.22
2023-07-04T04:00:52.495Z,6.53
2023-07-04T04:03:19.938Z,6.40
2023-07-04T04:05:47.230Z,6.65
2023-07-04T04:08:14.199Z,6.95
2023-07-04T04:10:41.175Z,6.25
2023-07-04T04:13:08.148Z,6.63
2023-07-04T04:15:35.060Z,6.25
2023-07-04T04:18:02.064Z,6.15
2023-07-04T04:20:29.235Z,6.03
2023-07-04T04:22:56.361Z,6.05
2023-07-04T04:25:23.386Z,6.32
2023-07-04T04:27:50.452Z,6.63
2023-07-04T04:30:17.757Z,6.05
2023-07-04T04:32:46.581Z,5.95
2023-07-04T04:35:14.865Z,6.13
2023-07-04T04:37:41.772Z,6.25
2023-07-04T04:40:09.742Z,6.35
2023-07-04T04:42:37.023Z,5.75
2023-07-04T04:45:05.282Z,5.95
2023-07-04T04:47:35.105Z,6.45
2023-07-04T04:50:03.540Z,6.95
2023-07-04T04:52:32.613Z,6.82
2023-07-04T04:55:03.614Z,6.10
2023-07-04T04:57:31.332Z,6.88
2023-07-04T05:00:00.705Z,7.13
2023-07-04T05:02:30.716Z,6.40
2023-07-04T05:05:00.441Z,6.00
2023-07-04T05:07:28.372Z,6.45
2023-07-04T05:09:56.387Z,5.90
2023-07-04T05:12:23.895Z,6.38
2023-07-04T05:14:51.150Z,6.25
2023-07-04T05:17:18.419Z,5.95
2023-07-04T05:19:49.631Z,6.07
2023-07-04T05:22:18.026Z,5.90
2023-07-04T05:24:45.056Z,6.45
2023-07-04T05:27:12.029Z,6.05
2023-07-04T05:29:38.965Z,6.15
2023-07-04T05:32:06.206Z,5.93
2023-07-04T05:34:33.214Z,5.95
2023-07-04T05:37:03.307Z,6.03
2023-07-04T05:39:30.396Z,6.18
2023-07-04T05:41:57.363Z,6.13
2023-07-04T05:44:24.450Z,5.85
2023-07-04T05:46:54.354Z,6.60
2023-07-04T05:49:21.326Z,6.30
2023-07-04T05:51:48.337Z,6.28
2023-07-04T05:54:15.350Z,7.05
2023-07-04T05:56:42.380Z,6.38
2023-07-04T05:59:11.401Z,6.25
2023-07-04T06:01:43.432Z,6.35
2023-07-04T06:04:11.999Z,6.10
2023-07-04T06:06:42.539Z,6.10
2023-07-04T06:09:14.425Z,6.55
2023-07-04T06:11:46.929Z,5.72
2023-07-04T06:14:25.723Z,6.15
2023-07-04T06:16:53.541Z,5.60
2023-07-04T06:19:20.878Z,5.93
2023-07-04T06:21:47.969Z,5.15
2023-07-04T06:24:17.227Z,5.90
2023-07-04T06:26:44.707Z,5.85
2023-07-04T06:29:11.819Z,5.93
2023-07-04T06:31:43.435Z,5.25
2023-07-04T06:34:12.452Z,5.63
2023-07-04T06:36:39.661Z,5.38
2023-07-04T06:39:06.777Z,5.68
2023-07-04T06:41:33.780Z,5.25
2023-07-04T06:44:00.875Z,5.25
2023-07-04T06:46:27.881Z,5.47
2023-07-04T06:48:54.941Z,5.15
2023-07-04T06:51:22.285Z,5.15
2023-07-04T06:53:51.029Z,4.70
2023-07-04T06:56:21.071Z,5.05
2023-07-04T06:58:55.814Z,5.40
2023-07-04T07:01:28.353Z,5.35
2023-07-04T07:03:57.127Z,5.35
2023-07-04T07:06:24.939Z,5.10
2023-07-04T07:08:52.109Z,4.88
2023-07-04T07:11:21.125Z,5.25
2023-07-04T07:13:48.187Z,4.95
2023-07-04T07:16:18.250Z,4.90
2023-07-04T07:18:46.788Z,5.43
2023-07-04T07:21:22.085Z,4.55
2023-07-04T07:23:53.290Z,4.95
2023-07-04T07:26:25.101Z,4.72
2023-07-04T07:28:53.947Z,4.80
2023-07-04T07:31:28.285Z,4.90
2023-07-04T07:34:00.221Z,4.93
2023-07-04T07:36:33.999Z,5.32
2023-07-04T07:39:04.214Z,4.82
2023-07-04T07:41:38.139Z,5.13
2023-07-04T07:44:06.894Z,5.47
2023-07-04T07:46:34.112Z,5.18
2023-07-04T07:49:01.475Z,4.82
2023-07-04T07:51:28.884Z,5.38
2023-07-04T07:53:57.488Z,5.28
2023-07-04T07:56:26.486Z,4.97
2023-07-04T07:58:53.992Z,4.97
2023-07-04T08:01:32.385Z,5.20
2023-07-04T08:04:00.658Z,4.95
2023-07-04T08:06:35.501Z,5.70
2023-07-04T08:09:03.389Z,4.85
2023-07-04T08:11:32.220Z,4.93
2023-07-04T08:14:00.295Z,4.88
2023-07-04T08:16:30.598Z,5.13
2023-07-04T08:19:00.102Z,5.28
2023-07-04T08:21:28.767Z,5.28
2023-07-04T08:23:55.861Z,5.22
2023-07-04T08:26:25.586Z,4.50
2023-07-04T08:28:57.468Z,5.15
2023-07-04T08:31:25.276Z,4.63
2023-07-04T08:33:52.225Z,4.85
2023-07-04T08:36:19.695Z,4.75
2023-07-04T08:38:49.179Z,5.15
2023-07-04T08:41:38.359Z,5.38
2023-07-04T08:44:10.877Z,4.80
2023-07-04T08:46:42.867Z,4.82
2023-07-04T08:49:39.827Z,4.65
2023-07-04T08:52:24.550Z,4.53
2023-07-04T08:54:52.361Z,4.55
2023-07-04T08:57:30.656Z,5.05
2023-07-04T09:00:07.644Z,4.63
2023-07-04T09:03:07.118Z,4.35
2023-07-04T09:05:55.265Z,4.50
2023-07-04T09:08:31.102Z,4.47
2023-07-04T09:11:04.838Z,4.30
2023-07-04T09:13:37.114Z,4.63
2023-07-04T09:16:12.430Z,3.70
2023-07-04T09:18:57.657Z,3.72
2023-07-04T09:21:26.486Z,3.90
2023-07-04T09:23:56.935Z,4.63
2023-07-04T09:26:27.244Z,5.60
2023-07-04T09:28:56.387Z,3.83
2023-07-04T09:31:31.996Z,4.13
2023-07-04T09:34:03.589Z,4.28
2023-07-04T09:36:37.250Z,3.80
2023-07-04T09:39:05.993Z,4.32
2023-07-04T09:41:47.747Z,4.30
2023-07-04T09:44:29.108Z,4.40
2023-07-04T09:46:58.272Z,4.32
2023-07-04T09:49:26.724Z,4.78
2023-07-04T09:52:01.101Z,4.50
2023-07-04T09:54:28.546Z,4.40
2023-07-04T09:56:55.980Z,4.53
2023-07-04T09:59:30.300Z,4.53
2023-07-04T10:02:15.008Z,4.50
2023-07-04T10:04:42.391Z,4.13
2023-07-04T10:07:17.168Z,4.50
2023-07-04T10:09:56.448Z,4.68
2023-07-04T10:12:25.652Z,4.40
2023-07-04T10:14:55.646Z,5.10
2023-07-04T10:17:28.899Z,5.30
2023-07-04T10:20:07.049Z,5.20
2023-07-04T10:22:40.268Z,4.75
2023-07-04T10:25:23.210Z,4.95
2023-07-04T10:27:59.780Z,5.47
2023-07-04T10:30:31.759Z,4.80
2023-07-04T10:33:05.131Z,4.78
2023-07-04T10:35:36.024Z,4.70
2023-07-04T10:38:34.012Z,4.72
2023-07-04T10:41:10.938Z,4.90
2023-07-04T10:43:41.104Z,5.22
2023-07-04T10:46:13.102Z,4.70
2023-07-04T10:48:40.646Z,4.80
2023-07-04T10:51:12.906Z,5.10
2023-07-04T10:53:39.832Z,4.45
2023-07-04T10:56:14.697Z,4.60
2023-07-04T10:58:45.632Z,4.80
2023-07-04T11:01:23.937Z,5.38
2023-07-04T11:04:21.677Z,5.28
2023-07-04T11:07:00.182Z,5.25
2023-07-04T11:09:32.975Z,4.60
2023-07-04T11:12:03.684Z,4.85
2023-07-04T11:14:32.537Z,5.13
2023-07-04T11:17:05.311Z,5.22
2023-07-04T11:19:36.953Z,4.95
2023-07-04T11:22:07.380Z,5.38
2023-07-04T11:25:00.830Z,5.60
2023-07-04T11:27:32.906Z,5.00
2023-07-04T11:30:04.580Z,5.32
2023-07-04T11:32:41.197Z,5.30
2023-07-04T11:35:11.929Z,5.10
2023-07-04T11:37:42.214Z,4.70
2023-07-04T11:40:31.838Z,5.05
2023-07-04T11:43:05.162Z,5.18
2023-07-04T11:45:33.757Z,5.43
2023-07-04T11:48:12.447Z,5.40
2023-07-04T11:51:05.676Z,5.05
2023-07-04T11:53:53.992Z,4.65
2023-07-04T11:56:35.808Z,5.07
2023-07-04T11:59:39.267Z,5.05
2023-07-04T12:02:30.658Z,5.30
2023-07-04T12:04:58.836Z,4.60
2023-07-04T12:07:47.523Z,5.32
2023-07-04T12:10:19.858Z,4.90
2023-07-04T12:12:58.502Z,4.95
2023-07-04T12:15:36.865Z,5.18
2023-07-04T12:18:22.908Z,5.00
2023-07-04T12:20:50.060Z,4.97
2023-07-04T12:23:17.114Z,5.53
2023-07-04T12:25:47.347Z,5.60
2023-07-04T12:28:16.880Z,5.80
2023-07-04T12:31:40.918Z,4.90
2023-07-04T12:33:49.379Z,4.78
2023-07-04T12:36:18.315Z,4.55
2023-07-04T12:38:55.140Z,5.10
2023-07-04T12:41:28.904Z,4.90
2023-07-04T12:51:36.747Z,4.55
2023-07-04T12:54:06.083Z,4.78
2023-07-04T12:56:34.307Z,5.05
2023-07-04T12:59:01.393Z,5.03
2023-07-04T13:01:32.626Z,4.50
2023-07-04T13:04:02.474Z,5.18
2023-07-04T13:06:30.233Z,4.63
2023-07-04T13:08:58.482Z,4.57
2023-07-04T13:11:27.579Z,4.50
2023-07-04T13:14:10.215Z,4.78
2023-07-04T13:16:39.468Z,4.55
2023-07-04T13:19:06.783Z,4.47
2023-07-04T13:21:41.686Z,4.20
2023-07-04T13:26:42.842Z,5.10
2023-07-04T13:34:31.686Z,4.00
2023-07-04T13:37:06.515Z,3.90
2023-07-04T13:42:03.759Z,4.30
2023-07-04T13:47:04.806Z,4.40
2023-07-04T13:49:31.733Z,3.72
2023-07-04T13:51:59.309Z,4.15
2023-07-04T13:54:26.271Z,4.60
2023-07-04T13:56:53.182Z,4.15
2023-07-04T13:59:20.899Z,4.30
2023-07-04T14:06:52.956Z,4.50
2023-07-04T14:09:21.038Z,4.50
2023-07-04T14:11:48.514Z,4.35
2023-07-04T14:17:12.682Z,4.20
2023-07-04T14:22:02.333Z,4.65
2023-07-04T14:24:29.411Z,4.43
2023-07-04T14:26:56.437Z,4.53
2023-07-04T14:29:23.469Z,4.70
2023-07-04T14:31:50.960Z,4.40
2023-07-04T14:34:18.169Z,4.32
2023-07-04T14:36:45.054Z,5.18
2023-07-04T14:39:11.935Z,4.90
2023-07-04T14:44:08.703Z,5.18
2023-07-04T14:46:35.922Z,4.53
2023-07-04T14:49:03.024Z,4.65
2023-07-04T14:51:30.031Z,5.10
2023-07-04T14:53:56.926Z,5.55
2023-07-04T14:56:33.196Z,5.00
2023-07-04T14:59:07.830Z,4.95
2023-07-04T15:01:34.960Z,4.82
2023-07-04T15:04:02.008Z,5.10
2023-07-04T15:06:31.358Z,5.20
2023-07-04T15:08:58.419Z,5.28
2023-07-04T15:11:25.687Z,5.78
2023-07-04T15:13:52.663Z,5.10
2023-07-04T15:16:19.934Z,5.32
2023-07-04T15:18:47.007Z,4.70
2023-07-04T15:21:14.014Z,5.45
2023-07-04T15:23:41.079Z,4.93
2023-07-04T15:26:25.171Z,5.30
2023-07-04T15:28:54.733Z,5.00
2023-07-04T15:31:21.892Z,5.90
2023-07-04T15:33:50.162Z,4.90
2023-07-04T15:36:17.613Z,5.55
2023-07-04T15:38:44.849Z,4.75
2023-07-04T15:41:12.416Z,5.30
2023-07-04T15:43:40.146Z,4.47
2023-07-04T15:46:11.793Z,5.35
2023-07-04T15:48:40.433Z,4.97
2023-07-04T15:51:13.211Z,5.72
2023-07-04T15:53:40.334Z,5.30
2023-07-04T15:56:12.800Z,5.20
2023-07-04T15:58:40.324Z,5.38
2023-07-04T16:01:10.146Z,5.50
2023-07-04T16:03:38.012Z,5.25
2023-07-04T16:06:11.175Z,5.03
2023-07-04T16:08:40.466Z,4.95
2023-07-04T16:11:12.073Z,5.10
2023-07-04T16:13:40.935Z,5.70
2023-07-04T16:16:09.805Z,4.72
2023-07-04T16:18:37.075Z,5.30
2023-07-04T16:21:04.184Z,5.10
2023-07-04T16:23:34.263Z,5.43
2023-07-04T16:26:01.477Z,5.63
2023-07-04T16:28:28.909Z,5.07
2023-07-04T16:31:03.404Z,4.85
2023-07-04T16:33:30.961Z,5.00
2023-07-04T16:35:58.103Z,5.55
2023-07-04T16:38:26.529Z,4.63
2023-07-04T16:40:54.885Z,4.63
2023-07-04T16:43:22.704Z,4.38
2023-07-04T16:45:49.930Z,4.47
2023-07-04T16:48:17.292Z,4.60
2023-07-04T16:50:44.389Z,4.07
2023-07-04T16:53:11.587Z,4.93
2023-07-04T16:55:39.148Z,4.78
2023-07-04T16:58:06.716Z,4.53
2023-07-04T17:00:35.208Z,4.47
2023-07-04T17:03:02.354Z,4.43
2023-07-04T17:05:29.635Z,4.05
2023-07-04T17:07:56.907Z,4.38
2023-07-04T17:10:23.998Z,4.75
2023-07-04T17:12:51.033Z,4.10
2023-07-04T17:15:19.131Z,4.38
2023-07-04T17:17:46.599Z,4.35
2023-07-04T17:20:13.952Z,4.10
2023-07-04T17:22:41.258Z,4.57
2023-07-04T17:25:14.020Z,4.05
2023-07-04T17:27:41.964Z,4.68
2023-07-04T17:30:09.310Z,4.22
2023-07-04T17:32:36.442Z,4.30
2023-07-04T17:35:06.885Z,4.28
2023-07-04T17:37:34.378Z,4.40
2023-07-04T17:40:01.292Z,4.13
2023-07-04T17:42:30.883Z,4.38
2023-07-04T17:45:01.046Z,3.70
2023-07-04T17:47:29.240Z,4.53
2023-07-04T17:49:57.268Z,4.10
2023-07-04T17:52:25.405Z,4.28
2023-07-04T17:54:52.314Z,4.15
2023-07-04T17:57:27.839Z,4.00
2023-07-04T17:59:56.133Z,4.70
2023-07-04T18:02:23.720Z,4.88
2023-07-04T18:04:55.140Z,4.68
2023-07-04T18:07:24.191Z,4.53
2023-07-04T18:09:53.085Z,4.15
2023-07-04T18:12:25.829Z,4.32
2023-07-04T18:14:55.470Z,4.38
2023-07-04T18:17:22.631Z,4.10
2023-07-04T18:19:56.399Z,4.10
2023-07-04T18:22:26.474Z,4.55
2023-07-04T18:24:55.009Z,4.68
2023-07-04T18:27:23.078Z,4.00
2023-07-04T18:29:52.808Z,4.18
2023-07-04T18:32:20.583Z,4.20
2023-07-04T18:34:47.590Z,5.10
2023-07-04T18:37:14.558Z,4.30
2023-07-04T18:39:41.513Z,3.95
2023-07-04T18:42:08.574Z,4.35
2023-07-04T18:44:36.267Z,4.63
2023-07-04T18:47:04.299Z,4.30
2023-07-04T18:49:31.337Z,4.88
2023-07-04T18:52:35.070Z,4.07
2023-07-04T18:55:02.556Z,4.25
2023-07-04T18:57:29.704Z,4.38
2023-07-04T18:59:56.676Z,4.38
2023-07-04T19:02:23.600Z,4.15
2023-07-04T19:04:50.972Z,4.32
2023-07-04T19:07:18.254Z,4.13
2023-07-04T19:09:45.468Z,4.18
2023-07-04T19:12:12.409Z,4.85
2023-07-04T19:14:39.832Z,3.88
2023-07-04T19:17:10.617Z,4.25
2023-07-04T19:19:40.640Z,4.30
2023-07-04T19:22:11.193Z,4.60
2023-07-04T19:24:40.620Z,4.18
2023-07-04T19:27:11.465Z,4.70
2023-07-04T19:29:38.628Z,4.25
2023-07-04T19:32:07.217Z,4.80
2023-07-04T19:34:35.183Z,4.45
2023-07-04T19:37:03.227Z,4.63
2023-07-04T19:39:34.009Z,4.22
2023-07-04T19:42:01.936Z,4.70
2023-07-04T19:44:28.971Z,4.60
2023-07-04T19:46:55.964Z,4.70
2023-07-04T19:49:24.106Z,4.80
2023-07-04T19:51:51.974Z,4.47
2023-07-04T19:54:21.394Z,4.28
2023-07-04T19:56:48.974Z,4.80
2023-07-04T19:59:15.844Z,4.72
2023-07-04T20:01:45.434Z,4.65
2023-07-04T20:04:12.650Z,4.70
2023-07-04T20:06:39.845Z,5.20
2023-07-04T20:09:09.602Z,5.10
2023-07-04T20:11:36.502Z,4.88
2023-07-04T20:14:06.517Z,4.72
2023-07-04T20:16:34.615Z,4.90
2023-07-04T20:19:03.224Z,4.95
2023-07-04T20:21:31.208Z,4.82
2023-07-04T20:23:58.165Z,5.03
2023-07-04T20:26:26.017Z,4.93
2023-07-04T20:28:52.978Z,5.20
2023-07-04T20:31:19.952Z,5.85
2023-07-04T20:33:48.296Z,5.38
2023-07-04T20:36:15.314Z,5.28
2023-07-04T20:38:42.344Z,5.43
2023-07-04T20:41:11.008Z,5.25
2023-07-04T20:43:40.542Z,5.97
2023-07-04T20:46:10.378Z,5.63
2023-07-04T20:48:37.352Z,5.05
2023-07-04T20:51:09.076Z,5.15
2023-07-04T20:53:41.205Z,4.82
2023-07-04T20:56:10.257Z,5.55
2023-07-04T20:58:37.840Z,5.18
2023-07-04T21:01:05.087Z,5.43
2023-07-04T21:03:35.946Z,5.50
2023-07-04T21:06:05.004Z,6.20
2023-07-04T21:08:34.098Z,6.03
2023-07-04T21:11:08.051Z,5.30
2023-07-04T21:13:37.804Z,5.70
2023-07-04T21:16:13.533Z,5.10
2023-07-04T21:18:45.515Z,6.30
2023-07-04T21:21:13.604Z,5.95
2023-07-04T21:23:41.231Z,5.63
2023-07-04T21:26:08.629Z,6.60
2023-07-04T21:28:36.427Z,5.65
2023-07-04T21:31:08.866Z,5.75
2023-07-04T21:33:36.369Z,5.88
2023-07-04T21:36:06.458Z,6.00
2023-07-04T21:38:35.392Z,5.95
2023-07-04T21:41:03.903Z,5.90
2023-07-04T21:43:30.896Z,5.78
2023-07-04T21:46:06.683Z,6.00
2023-07-04T21:48:34.224Z,6.32
2023-07-04T21:51:07.284Z,6.63
2023-07-04T21:53:37.069Z,6.22
2023-07-04T21:56:04.416Z,6.18
2023-07-04T21:58:31.434Z,5.45
2023-07-04T22:01:05.174Z,5.72
2023-07-04T22:03:34.512Z,5.88
2023-07-04T22:06:06.532Z,6.22
2023-07-04T22:08:36.029Z,6.13
2023-07-04T22:11:04.352Z,5.82
2023-07-04T22:13:33.543Z,5.68
2023-07-04T22:16:03.005Z,5.95
2023-07-04T22:18:32.234Z,6.20
2023-07-04T22:20:59.703Z,5.80
2023-07-04T22:23:26.884Z,5.50
2023-07-04T22:26:00.192Z,5.38
2023-07-04T22:31:03.442Z,5.97
2023-07-04T22:33:33.309Z,5.45
2023-07-04T22:36:01.879Z,6.32
2023-07-04T22:38:29.832Z,5.55
2023-07-04T22:40:56.862Z,6.10
2023-07-04T22:43:24.698Z,6.13
2023-07-04T22:45:54.992Z,6.00
2023-07-04T22:48:22.496Z,6.32
2023-07-04T22:51:04.237Z,5.40
2023-07-04T22:53:31.382Z,6.30
2023-07-04T22:56:05.678Z,6.15
2023-07-04T22:58:37.845Z,5.90
2023-07-04T23:01:33.068Z,6.40
2023-07-04T23:04:00.105Z,5.95
2023-07-04T23:06:28.407Z,5.53
2023-07-04T23:08:55.627Z,5.22
2023-07-04T23:11:23.702Z,6.22
2023-07-04T23:13:50.892Z,5.53
2023-07-04T23:16:23.978Z,6.13
2023-07-04T23:18:51.209Z,5.37
2023-07-04T23:21:19.682Z,6.25
2023-07-04T23:23:49.446Z,5.93
2023-07-04T23:26:23.688Z,6.43
2023-07-04T23:28:50.753Z,6.35
2023-07-04T23:31:17.934Z,7.00
2023-07-04T23:33:46.777Z,6.70
2023-07-04T23:36:16.807Z,6.10
2023-07-04T23:38:45.131Z,6.03
2023-07-04T23:41:12.442Z,6.28
2023-07-04T23:43:40.414Z,6.07
2023-07-04T23:46:07.437Z,6.00
2023-07-04T23:48:34.575Z,6.40
2023-07-04T23:51:01.602Z,6.15
2023-07-04T23:53:29.580Z,5.53
2023-07-04T23:55:57.631Z,6.43
2023-07-04T23:58:24.713Z,6.22
